Federal Kumano — VRYL4 — position and weather

sailwx.info

Track history (hours):
 
Tides and Currents Weather Stations Pressure Air Temp Water Temp Dewpoint Dewpoint Depression Visibility Wind Speed Wind Dir Waves Ship Positions

Federal Kumano

Last reported at 2014-Nov-16 08:22 UTC. Time now 2014-Nov-29 00:03 UTC.
Position N 43°58' W 076°36'.
Warning: this ship's position is 12 days out of date.

Length 200 m; draft 8 m.

Type: Cargo ship. MMSI: 477284000.

Date/timePositionNaut miles runAvg speedWind from/ knotsBaromVisibWave heightAir tempDewpointWater temp
2014-Nov-16 08:22N 43°58' W 076°36'1113.3
2014-Nov-16 07:33N 44°05' W 076°25'1010.1
2014-Nov-16 06:33N 44°12' W 076°15'13 9.6
2014-Nov-16 05:12N 44°18' W 075°59'6 9.0
2014-Nov-16 04:33N 44°22' W 075°53'1010.5
2014-Nov-16 03:33N 44°31' W 075°46'65 6.4
2014-Nov-15 17:18N 45°07' W 074°28'810.5
2014-Nov-15 16:33N 45°11' W 074°19'9 9.5
2014-Nov-15 15:33N 45°13' W 074°06'8 8.4
2014-Nov-15 14:33N 45°18' W 073°56'1 1.1
2014-Nov-15 13:33N 45°19' W 073°55'2 2.1
2014-Nov-15 12:33N 45°20' W 073°53'9 9.1
2014-Nov-15 11:33N 45°25' W 073°42'5 5.2
2014-Nov-15 10:33N 45°24' W 073°34'1 1.1
2014-Nov-15 09:33N 45°24' W 073°33'5 4.6
2014-Nov-15 08:33N 45°29' W 073°31'1 0.9
2014-Nov-15 07:33N 45°30' W 073°31'3 2.8
2014-Nov-15 06:33N 45°32' W 073°32'8 8.5
2014-Nov-15 05:33N 45°40' W 073°27'10 9.7
2014-Nov-15 04:33N 45°48' W 073°20'10 9.8
2014-Nov-15 03:33N 45°57' W 073°13'9 8.8
2014-Nov-15 02:33N 46°04' W 073°05'10 9.8
2014-Nov-15 01:33N 46°11' W 072°55'1110.8
2014-Nov-15 00:33N 46°16' W 072°41'7 7.4
2014-Nov-14 23:33N 46°20' W 072°32'1010.2
2014-Nov-14 22:33N 46°26' W 072°21'10 9.5
2014-Nov-14 21:28N 46°33' W 072°09'9 9.4
2014-Nov-14 20:28N 46°37' W 071°57'  
Track history (hours):
 
Tides and Currents Weather Stations Pressure Air Temp Water Temp Dewpoint Dewpoint Depression Visibility Wind Speed Wind Dir Waves Ship Positions

Federal Kumano

Last reported at 2014-Nov-16 08:22 UTC. Time now 2014-Nov-29 00:03 UTC.
Position N 43°58' W 076°36'.
Warning: this ship's position is 12 days out of date.

Length 200 m; draft 8 m.

Type: Cargo ship. MMSI: 477284000.

Date/timePositionNaut miles runAvg speedWind from/ knotsBaromVisibWave heightAir tempDewpointWater temp
2014-Nov-16 08:22N 43°58' W 076°36'1113.3
2014-Nov-16 07:33N 44°05' W 076°25'1010.1
2014-Nov-16 06:33N 44°12' W 076°15'13 9.6
2014-Nov-16 05:12N 44°18' W 075°59'6 9.0
2014-Nov-16 04:33N 44°22' W 075°53'1010.5
2014-Nov-16 03:33N 44°31' W 075°46'65 6.4
2014-Nov-15 17:18N 45°07' W 074°28'810.5
2014-Nov-15 16:33N 45°11' W 074°19'9 9.5
2014-Nov-15 15:33N 45°13' W 074°06'8 8.4
2014-Nov-15 14:33N 45°18' W 073°56'1 1.1
2014-Nov-15 13:33N 45°19' W 073°55'2 2.1
2014-Nov-15 12:33N 45°20' W 073°53'9 9.1
2014-Nov-15 11:33N 45°25' W 073°42'5 5.2
2014-Nov-15 10:33N 45°24' W 073°34'1 1.1
2014-Nov-15 09:33N 45°24' W 073°33'5 4.6
2014-Nov-15 08:33N 45°29' W 073°31'1 0.9
2014-Nov-15 07:33N 45°30' W 073°31'3 2.8
2014-Nov-15 06:33N 45°32' W 073°32'8 8.5
2014-Nov-15 05:33N 45°40' W 073°27'10 9.7
2014-Nov-15 04:33N 45°48' W 073°20'10 9.8
2014-Nov-15 03:33N 45°57' W 073°13'9 8.8
2014-Nov-15 02:33N 46°04' W 073°05'10 9.8
2014-Nov-15 01:33N 46°11' W 072°55'1110.8
2014-Nov-15 00:33N 46°16' W 072°41'7 7.4
2014-Nov-14 23:33N 46°20' W 072°32'1010.2
2014-Nov-14 22:33N 46°26' W 072°21'10 9.5
2014-Nov-14 21:28N 46°33' W 072°09'9 9.4
2014-Nov-14 20:28N 46°37' W 071°57'  

Dump ship's entire track history